Time;durP1;ratioP1;P1;durP2;ratioP2;P2;SDS_P1;SDS_P2;PMS_P1;PMS_P2;Temp;Humidity;BMP_temperature;BMP_pressure;BME280_temperature;BME280_humidity;BME280_pressure;Samples;Min_cycle;Max_cycle;Signal;HPM_P1;HPM_P2
2022/03/28 00:01:10;;;;;;;25.17;12.13;;;;;;;6.41;95.50;101640.78;5033411;28;20528;-74
2022/03/28 00:03:36;;;;;;;27.15;12.02;;;;;;;6.53;94.71;101651.06;5030988;28;20060;-73
2022/03/28 00:06:02;;;;;;;22.35;11.48;;;;;;;6.76;95.11;101659.50;5032375;28;20108;-74
2022/03/28 00:08:28;;;;;;;30.60;12.25;;;;;;;6.96;92.97;101651.53;5030690;28;20037;-73
2022/03/28 00:10:55;;;;;;;28.58;12.07;;;;;;;7.01;92.32;101651.00;5032443;28;20028;-75
2022/03/28 00:13:20;;;;;;;39.22;13.65;;;;;;;7.09;91.94;101642.13;5032967;28;20468;-73
2022/03/28 00:15:46;;;;;;;35.03;13.63;;;;;;;7.17;91.41;101646.13;5032762;28;20017;-75
2022/03/28 00:18:12;;;;;;;49.55;15.27;;;;;;;7.24;91.22;101635.50;5033053;28;20103;-74
2022/03/28 00:20:38;;;;;;;37.80;13.55;;;;;;;7.32;90.31;101625.75;5032773;28;20037;-75
2022/03/28 00:23:03;;;;;;;65.68;16.85;;;;;;;7.49;90.62;101656.84;5032409;28;20027;-74
2022/03/28 00:25:30;;;;;;;44.03;14.05;;;;;;;7.57;89.17;101642.84;5030184;28;20018;-74
2022/03/28 00:27:55;;;;;;;49.20;14.00;;;;;;;7.61;86.84;101662.81;5032418;28;20022;-71
2022/03/28 00:30:21;;;;;;;34.42;12.60;;;;;;;7.57;86.43;101663.41;5032858;28;20022;-74
2022/03/28 00:32:46;;;;;;;25.63;11.18;;;;;;;7.37;86.06;101656.91;5031795;28;20033;-75
2022/03/28 00:35:12;;;;;;;25.55;11.73;;;;;;;7.29;87.14;101667.53;5031490;28;20037;-75
2022/03/28 00:37:39;;;;;;;18.85;9.93;;;;;;;7.00;87.81;101650.06;5032087;28;20021;-74
2022/03/28 00:40:10;;;;;;;23.48;10.98;;;;;;;7.06;87.93;101676.19;5032758;28;20052;-71
2022/03/28 00:42:37;;;;;;;19.98;10.10;;;;;;;6.84;89.38;101689.19;5033191;28;20026;-72
2022/03/28 00:45:07;;;;;;;22.63;10.77;;;;;;;6.62;90.29;101677.38;5032172;28;20064;-75
2022/03/28 00:47:32;;;;;;;;;;;;;;;6.52;91.06;101684.28;5031800;28;20481;-73
2022/03/28 00:49:58;;;;;;;24.27;11.80;;;;;;;6.12;92.58;101652.38;5032285;28;19913;-75
2022/03/28 00:52:24;;;;;;;23.50;11.52;;;;;;;5.86;93.76;101646.94;5031995;28;20382;-74
2022/03/28 00:54:50;;;;;;;22.58;11.98;;;;;;;5.93;95.86;101691.09;5032322;28;20489;-74
2022/03/28 00:57:17;;;;;;;17.70;11.10;;;;;;;5.85;95.89;101686.19;5032176;28;20032;-74
2022/03/28 00:59:43;;;;;;;24.88;12.38;;;;;;;5.81;96.96;101696.19;5032176;28;20373;-74
2022/03/28 01:02:08;;;;;;;23.38;11.27;;;;;;;5.63;98.92;101682.88;5030656;28;20033;-75
2022/03/28 01:04:34;;;;;;;24.10;11.98;;;;;;;5.47;100.00;101693.59;5032089;28;20029;-73
2022/03/28 01:07:00;;;;;;;19.80;11.30;;;;;;;5.47;100.00;101697.81;5031921;28;20036;-75
2022/03/28 01:09:26;;;;;;;22.77;11.95;;;;;;;5.52;100.00;101683.72;5031639;28;20040;-75
2022/03/28 01:11:53;;;;;;;21.73;11.88;;;;;;;5.41;100.00;101669.16;5031627;28;20393;-73
2022/03/28 01:14:19;;;;;;;23.40;12.50;;;;;;;5.29;100.00;101662.31;5031917;28;20389;-74
2022/03/28 01:19:29;;;;;;;23.60;10.98;;;;;;;5.24;100.00;101667.88;5031445;28;20084;-72
2022/03/28 01:21:54;;;;;;;22.25;11.77;;;;;;;5.24;100.00;101679.00;5031423;28;20065;-74
2022/03/28 01:24:20;;;;;;;23.43;13.40;;;;;;;4.93;100.00;101625.41;5031659;28;20475;-72
2022/03/28 01:26:46;;;;;;;21.53;11.57;;;;;;;5.28;100.00;101681.06;5031237;28;20451;-73
2022/03/28 01:29:14;;;;;;;19.53;11.17;;;;;;;5.29;100.00;101690.50;5030848;28;20033;-74
2022/03/28 01:31:40;;;;;;;23.40;11.40;;;;;;;5.20;100.00;101666.75;5031596;28;20034;-71
2022/03/28 01:34:06;;;;;;;23.33;11.82;;;;;;;5.18;100.00;101663.16;5031157;28;20079;-75
2022/03/28 01:36:32;;;;;;;24.90;11.70;;;;;;;5.12;100.00;101657.56;5031710;28;20057;-74
2022/03/28 01:38:58;;;;;;;28.47;12.97;;;;;;;5.30;100.00;101683.72;5031075;28;20421;-71
2022/03/28 01:41:23;;;;;;;19.87;11.43;;;;;;;5.19;100.00;101658.16;5031067;28;20036;-73
2022/03/28 01:43:48;;;;;;;28.35;11.65;;;;;;;5.37;100.00;101693.69;5030584;28;20051;-75
2022/03/28 01:46:14;;;;;;;17.45;11.00;;;;;;;5.43;100.00;101676.22;5031013;28;20481;-75
2022/03/28 01:48:40;;;;;;;24.23;11.65;;;;;;;5.45;100.00;101684.03;5031054;28;20030;-71
2022/03/28 01:51:05;;;;;;;24.00;10.52;;;;;;;5.50;100.00;101678.47;5031133;28;20029;-71
2022/03/28 01:53:31;;;;;;;22.10;11.68;;;;;;;5.45;100.00;101691.69;5031113;28;20025;-74
2022/03/28 01:55:56;;;;;;;18.63;10.45;;;;;;;5.33;100.00;101686.50;5031178;28;20045;-75
2022/03/28 01:58:22;;;;;;;21.73;11.20;;;;;;;5.31;100.00;101688.97;5030274;28;20128;-73
2022/03/28 02:00:47;;;;;;;23.00;11.17;;;;;;;5.16;100.00;101683.53;5028355;28;20039;-73
2022/03/28 02:03:12;;;;;;;24.00;10.43;;;;;;;5.01;100.00;101690.91;5030509;28;20056;-72
2022/03/28 02:05:38;;;;;;;27.10;11.03;;;;;;;4.51;100.00;101647.72;5030465;28;20414;-73
2022/03/28 02:08:04;;;;;;;24.10;11.90;;;;;;;4.55;100.00;101682.13;5031029;28;20036;-73
2022/03/28 02:10:30;;;;;;;22.03;11.13;;;;;;;4.56;100.00;101689.03;5030560;28;20072;-74
2022/03/28 02:12:56;;;;;;;20.33;11.03;;;;;;;4.44;100.00;101673.56;5029015;28;20400;-72
2022/03/28 02:15:22;;;;;;;22.60;11.40;;;;;;;4.18;100.00;101644.22;5029518;28;22257;-73
2022/03/28 02:17:47;;;;;;;21.80;10.73;;;;;;;4.28;100.00;101694.44;5029120;28;20056;-74
2022/03/28 02:20:14;;;;;;;18.60;9.03;;;;;;;4.23;100.00;101688.06;5030339;28;20036;-71
2022/03/28 02:22:41;;;;;;;18.73;9.50;;;;;;;3.95;100.00;101649.09;5028103;28;20025;-73
2022/03/28 02:25:09;;;;;;;21.93;10.27;;;;;;;3.61;100.00;101601.22;5030227;28;20505;-72
2022/03/28 02:27:35;;;;;;;24.93;10.70;;;;;;;4.00;100.00;101686.13;5028274;28;20481;-74
2022/03/28 02:30:01;;;;;;;21.33;10.43;;;;;;;3.92;100.00;101688.06;5030672;28;20026;-75
2022/03/28 02:32:27;;;;;;;19.90;10.27;;;;;;;4.04;100.00;101693.31;5030731;28;20028;-73
2022/03/28 02:34:52;;;;;;;18.10;10.37;;;;;;;4.09;100.00;101698.78;5030654;28;20026;-74
2022/03/28 02:37:18;;;;;;;20.80;10.30;;;;;;;4.03;100.00;101692.41;5031159;28;20032;-73
2022/03/28 02:39:44;;;;;;;18.00;10.07;;;;;;;4.00;100.00;101701.47;5030634;28;20115;-71
2022/03/28 02:42:10;;;;;;;21.63;10.50;;;;;;;3.97;100.00;101699.56;5020962;28;20029;-71
2022/03/28 02:44:35;;;;;;;18.90;10.50;;;;;;;3.93;100.00;101697.53;5030705;28;20037;-72
2022/03/28 02:47:01;;;;;;;19.10;9.90;;;;;;;3.90;100.00;101704.94;5030544;28;20029;-73
2022/03/28 02:49:26;;;;;;;19.00;10.00;;;;;;;3.97;100.00;101704.66;5030720;28;20401;-73
2022/03/28 02:51:52;;;;;;;23.27;9.80;;;;;;;3.85;100.00;101690.88;5030303;28;20021;-74
2022/03/28 02:54:18;;;;;;;20.77;10.80;;;;;;;3.92;100.00;101689.75;5030288;28;20033;-71
2022/03/28 02:56:43;;;;;;;24.07;11.23;;;;;;;3.85;100.00;101702.00;5044759;28;20038;-70
2022/03/28 02:59:09;;;;;;;19.80;9.67;;;;;;;3.81;100.00;101696.50;5030419;28;20469;-74
2022/03/28 03:01:34;;;;;;;16.20;8.90;;;;;;;3.69;100.00;101709.16;5044456;28;20045;-72
2022/03/28 03:04:00;;;;;;;21.00;9.60;;;;;;;3.68;100.00;101705.69;5030414;28;20033;-74
2022/03/28 03:06:26;;;;;;;22.33;9.90;;;;;;;3.70;100.00;101706.72;5030180;28;20032;-73
2022/03/28 03:08:51;;;;;;;19.00;9.87;;;;;;;3.49;100.00;101666.56;5030592;28;20052;-72
2022/03/28 03:11:17;;;;;;;20.00;8.83;;;;;;;3.59;100.00;101701.44;5029829;28;20154;-74
2022/03/28 03:13:43;;;;;;;19.77;9.67;;;;;;;3.63;100.00;101701.84;5030206;28;20041;-73
2022/03/28 03:16:08;;;;;;;21.67;9.17;;;;;;;3.71;100.00;101705.03;5030036;28;20025;-74
2022/03/28 03:18:34;;;;;;;20.50;10.37;;;;;;;3.69;100.00;101709.16;5030155;28;20056;-73
2022/03/28 03:21:00;;;;;;;18.33;9.47;;;;;;;3.69;100.00;101701.47;5030185;28;20030;-74
2022/03/28 03:23:27;;;;;;;18.23;8.53;;;;;;;3.74;100.00;101702.75;5029930;28;20025;-71
2022/03/28 03:25:52;;;;;;;22.00;9.43;;;;;;;3.57;100.00;101693.66;5032351;28;20033;-73
2022/03/28 03:28:20;;;;;;;20.63;9.90;;;;;;;3.66;100.00;101712.31;5036435;28;20052;-71
2022/03/28 03:30:48;;;;;;;17.83;9.37;;;;;;;3.51;100.00;101703.34;5036300;28;20492;-73
2022/03/28 03:33:14;;;;;;;19.30;8.70;;;;;;;3.73;100.00;101704.41;5033353;28;20033;-71
2022/03/28 03:35:40;;;;;;;16.90;8.43;;;;;;;3.75;100.00;101714.78;5035095;28;20108;-73
2022/03/28 03:38:06;;;;;;;16.67;9.00;;;;;;;3.68;100.00;101715.00;5036527;28;20104;-73
2022/03/28 03:40:31;;;;;;;15.47;9.13;;;;;;;3.67;100.00;101714.09;5036142;28;20030;-71
2022/03/28 03:42:57;;;;;;;16.73;8.30;;;;;;;3.67;100.00;101716.66;5036501;28;20026;-70
2022/03/28 03:45:23;;;;;;;17.97;9.00;;;;;;;3.65;100.00;101728.41;5036657;28;20087;-73
2022/03/28 03:47:48;;;;;;;18.10;9.07;;;;;;;3.63;100.00;101714.63;5036516;28;20034;-75
2022/03/28 03:50:14;;;;;;;21.90;8.80;;;;;;;3.74;100.00;101730.84;5035191;28;20108;-73
2022/03/28 03:52:39;;;;;;;18.73;8.93;;;;;;;3.75;100.00;101729.19;5036293;28;20472;-72
2022/03/28 03:55:06;;;;;;;18.87;8.97;;;;;;;3.62;100.00;101720.47;5036445;28;20029;-72
2022/03/28 03:57:32;;;;;;;20.27;9.80;;;;;;;3.73;100.00;101735.06;5036519;28;20029;-74
2022/03/28 03:59:58;;;;;;;20.47;9.40;;;;;;;3.66;100.00;101732.72;5036547;28;20037;-70
2022/03/28 04:02:23;;;;;;;22.00;9.23;;;;;;;3.77;100.00;101732.78;5036029;28;20471;-74
2022/03/28 04:04:48;;;;;;;16.87;8.63;;;;;;;3.89;100.00;101734.69;5036144;28;20022;-74
2022/03/28 04:07:14;;;;;;;15.30;8.77;;;;;;;3.82;99.91;101716.16;5036126;28;20035;-73
2022/03/28 04:09:40;;;;;;;14.23;7.67;;;;;;;3.88;99.75;101734.56;5035874;28;20125;-74
2022/03/28 04:12:06;;;;;;;20.00;8.27;;;;;;;3.75;99.80;101740.31;5036693;28;20034;-75
2022/03/28 04:14:31;;;;;;;16.37;8.37;;;;;;;3.75;99.78;101732.66;5036209;28;20029;-72
2022/03/28 04:16:57;;;;;;;20.50;8.67;;;;;;;3.79;99.56;101736.31;5033705;28;20050;-74
2022/03/28 04:19:22;;;;;;;20.33;8.17;;;;;;;3.83;98.31;101736.72;5036263;28;20032;-73
2022/03/28 04:21:48;;;;;;;18.13;8.50;;;;;;;3.55;96.96;101698.66;5036125;28;20394;-72
2022/03/28 04:24:14;;;;;;;21.23;9.10;;;;;;;3.82;96.50;101731.50;5033247;28;20104;-74
2022/03/28 04:26:39;;;;;;;18.33;9.37;;;;;;;3.97;95.20;101743.00;5034979;28;20065;-72
2022/03/28 04:29:05;;;;;;;22.53;9.93;;;;;;;3.82;93.68;101713.63;5035152;28;20029;-72
2022/03/28 04:31:30;;;;;;;19.60;9.47;;;;;;;4.02;93.04;101751.94;5035189;28;20538;-72
2022/03/28 04:33:56;;;;;;;28.83;15.10;;;;;;;4.00;92.60;101734.69;5035114;28;20029;-75
2022/03/28 04:36:23;;;;;;;24.63;13.10;;;;;;;3.88;91.02;101706.47;5036128;28;20025;-71
2022/03/28 04:38:49;;;;;;;65.47;33.87;;;;;;;4.40;90.52;101772.91;5031335;28;20112;-74
2022/03/28 04:41:15;;;;;;;51.53;29.50;;;;;;;4.43;89.17;101778.28;5033137;28;20036;-72
2022/03/28 04:43:40;;;;;;;69.07;33.60;;;;;;;4.17;88.49;101733.56;5032820;28;20067;-73
2022/03/28 04:46:06;;;;;;;38.63;23.53;;;;;;;4.33;88.92;101786.84;5033348;28;20079;-71
2022/03/28 04:48:31;;;;;;;22.87;10.40;;;;;;;4.20;88.66;101767.94;5032838;28;20088;-70
2022/03/28 04:50:57;;;;;;;19.63;10.30;;;;;;;4.12;89.03;101768.06;5033006;28;20030;-74
2022/03/28 04:53:22;;;;;;;24.33;9.63;;;;;;;4.12;89.11;101785.94;5030532;28;20052;-73
2022/03/28 04:55:47;;;;;;;19.80;9.00;;;;;;;4.09;88.86;101784.03;5032870;28;20029;-73
2022/03/28 04:58:13;;;;;;;23.73;10.87;;;;;;;4.18;88.78;101782.22;5020339;28;20030;-73
2022/03/28 05:00:38;;;;;;;27.43;14.57;;;;;;;4.19;88.54;101794.25;5032657;28;20041;-74
2022/03/28 05:03:04;;;;;;;23.80;9.67;;;;;;;3.88;89.88;101781.44;5032497;28;20037;-73
2022/03/28 05:05:30;;;;;;;25.03;10.33;;;;;;;3.66;90.15;101740.41;5030091;28;20025;-73
2022/03/28 05:07:55;;;;;;;19.80;9.47;;;;;;;3.97;89.44;101788.09;5030412;28;20547;-72
2022/03/28 05:10:21;;;;;;;21.73;9.20;;;;;;;3.99;89.67;101787.47;5031628;28;20038;-74
2022/03/28 05:12:46;;;;;;;34.00;10.50;;;;;;;4.17;90.86;101800.88;5031882;28;20041;-73
2022/03/28 05:15:13;;;;;;;30.67;10.63;;;;;;;4.12;90.29;101796.16;5031562;28;20116;-70
2022/03/28 05:17:38;;;;;;;55.73;14.47;;;;;;;4.19;89.53;101808.72;5026891;28;20072;-74
2022/03/28 05:20:05;;;;;;;21.40;10.67;;;;;;;3.96;89.25;101782.13;5030301;28;20457;-75
2022/03/28 05:22:31;;;;;;;26.10;10.13;;;;;;;4.08;90.23;101799.25;5031184;28;20045;-73
2022/03/28 05:24:57;;;;;;;30.03;9.73;;;;;;;4.17;89.86;101807.69;5031440;28;20401;-72
2022/03/28 05:27:23;;;;;;;21.57;10.07;;;;;;;4.28;90.47;101801.81;5045826;28;20037;-74
2022/03/28 05:29:48;;;;;;;19.67;9.03;;;;;;;4.31;89.96;101791.84;5031654;28;20036;-74
2022/03/28 05:32:14;;;;;;;31.00;9.27;;;;;;;4.43;89.33;101804.75;5031287;28;20116;-74
2022/03/28 05:34:40;;;;;;;31.10;10.30;;;;;;;4.57;89.81;101803.31;5031140;28;20468;-74
2022/03/28 05:37:16;;;;;;;22.40;11.17;;;;;;;4.70;88.73;101801.00;5030757;28;20479;-73
2022/03/28 05:39:46;;;;;;;26.70;13.93;;;;;;;4.93;86.99;101804.53;5030945;28;20022;-73
2022/03/28 05:42:11;;;;;;;41.08;21.40;;;;;;;5.07;86.92;101807.34;5025559;28;20061;-73
2022/03/28 05:44:39;;;;;;;35.30;20.60;;;;;;;5.36;86.32;101819.94;5011685;28;20072;-74
2022/03/28 05:47:05;;;;;;;24.80;11.63;;;;;;;5.30;86.19;101804.06;5031416;28;20040;-74
2022/03/28 05:49:31;;;;;;;28.80;15.83;;;;;;;5.41;86.47;101820.28;5030367;28;20045;-70
2022/03/28 05:51:57;;;;;;;16.58;9.70;;;;;;;5.34;87.57;101819.78;5030604;28;20033;-72
2022/03/28 05:54:22;;;;;;;18.45;9.57;;;;;;;5.35;87.56;101826.69;5029972;28;20472;-71
2022/03/28 05:56:49;;;;;;;25.75;10.10;;;;;;;5.39;87.54;101816.72;5029454;28;20025;-71
2022/03/28 05:59:15;;;;;;;22.55;10.25;;;;;;;5.50;86.04;101816.78;5031654;28;20104;-71
2022/03/28 06:01:40;;;;;;;27.45;12.32;;;;;;;5.64;86.10;101815.28;5029597;28;20421;-71
2022/03/28 06:04:06;;;;;;;18.85;8.85;;;;;;;5.88;85.42;101817.09;5030193;28;20033;-72
2022/03/28 06:06:32;;;;;;;23.63;10.80;;;;;;;5.95;84.51;101814.25;5030442;28;20042;-73
2022/03/28 06:08:58;;;;;;;20.33;10.10;;;;;;;6.05;86.05;101818.44;5030766;28;20056;-71
2022/03/28 06:11:23;;;;;;;19.45;9.82;;;;;;;5.89;87.87;101801.84;5028349;28;20041;-72
2022/03/28 06:13:49;;;;;;;20.67;8.88;;;;;;;6.05;84.81;101823.56;5028912;28;20112;-71
2022/03/28 06:16:15;;;;;;;24.27;10.00;;;;;;;6.21;86.68;101825.66;5029731;28;20037;-72
2022/03/28 06:18:40;;;;;;;42.38;11.23;;;;;;;6.29;86.85;101821.97;5029814;28;20053;-72
2022/03/28 06:21:07;;;;;;;21.65;9.45;;;;;;;6.38;85.62;101798.69;5031143;28;20041;-70
2022/03/28 06:23:36;;;;;;;34.10;11.98;;;;;;;6.48;87.30;101817.47;5025601;28;20045;-73
2022/03/28 06:26:02;;;;;;;29.70;12.43;;;;;;;6.64;86.08;101821.19;5026082;28;20138;-70
2022/03/28 06:28:27;;;;;;;18.98;9.27;;;;;;;6.77;86.06;101805.03;5030714;28;20513;-70
2022/03/28 06:30:53;;;;;;;43.47;10.63;;;;;;;7.08;85.47;101810.72;5030723;28;20072;-70
2022/03/28 06:33:18;;;;;;;26.52;9.70;;;;;;;7.23;82.34;101813.50;5030550;28;20198;-72
2022/03/28 06:35:45;;;;;;;25.02;9.63;;;;;;;7.22;84.28;101798.88;5029185;28;20406;-72
2022/03/28 06:38:11;;;;;;;21.17;9.45;;;;;;;7.27;83.34;101825.78;5029733;28;20029;-70
2022/03/28 06:40:36;;;;;;;26.52;10.30;;;;;;;7.32;86.05;101818.41;5028889;28;20044;-73
2022/03/28 06:43:02;;;;;;;22.02;9.40;;;;;;;7.32;83.73;101790.16;5030740;28;20068;-72
2022/03/28 06:45:28;;;;;;;27.10;10.18;;;;;;;7.56;85.04;101818.38;5025933;28;20486;-72
2022/03/28 06:47:54;;;;;;;18.50;9.05;;;;;;;7.57;83.97;101822.75;5024714;28;20025;-72
2022/03/28 06:50:21;;;;;;;23.70;8.68;;;;;;;7.73;85.66;101817.00;5026111;28;20033;-72
2022/03/28 06:52:47;;;;;;;21.55;9.35;;;;;;;7.99;84.96;101812.78;5023329;28;20114;-73
2022/03/28 06:55:12;;;;;;;21.48;11.30;;;;;;;8.10;83.06;101807.59;5030275;28;20056;-72
2022/03/28 06:57:38;;;;;;;22.77;9.48;;;;;;;8.29;82.55;101810.50;5026675;28;20112;-72
2022/03/28 07:00:05;;;;;;;23.65;9.27;;;;;;;8.42;82.48;101810.56;5029921;28;20029;-72
2022/03/28 07:02:31;;;;;;;23.27;9.35;;;;;;;8.41;79.50;101777.88;5028839;28;20396;-70
2022/03/28 07:04:57;;;;;;;22.67;9.93;;;;;;;8.74;81.11;101807.59;5030250;28;20040;-73
2022/03/28 07:07:23;;;;;;;22.75;10.38;;;;;;;8.77;79.85;101809.47;5030226;28;20029;-69
2022/03/28 07:09:49;;;;;;;23.38;10.50;;;;;;;8.95;78.60;101806.31;5030231;28;20555;-69
2022/03/28 07:12:14;;;;;;;20.85;9.05;;;;;;;9.14;79.25;101811.88;5030075;28;20072;-72
2022/03/28 07:14:40;;;;;;;28.83;9.23;;;;;;;9.27;78.98;101807.50;5030140;28;20068;-72
2022/03/28 07:17:06;;;;;;;25.77;10.35;;;;;;;9.42;76.93;101805.91;5030134;28;20409;-70
2022/03/28 07:19:31;;;;;;;24.88;9.98;;;;;;;9.61;75.20;101802.78;5030359;28;20466;-70
2022/03/28 07:21:58;;;;;;;30.92;10.13;;;;;;;9.76;74.74;101802.84;5030439;28;20033;-70
2022/03/28 07:24:24;;;;;;;33.90;10.13;;;;;;;10.00;74.31;101802.56;5029974;28;20041;-72
2022/03/28 07:26:49;;;;;;;25.15;9.85;;;;;;;9.95;74.86;101784.22;5029671;28;20417;-73
2022/03/28 07:29:17;;;;;;;38.33;10.48;;;;;;;10.08;73.06;101787.53;5030005;28;20026;-73
2022/03/28 07:31:49;;;;;;;30.10;10.23;;;;;;;10.26;72.69;101785.19;5029567;28;20040;-72
2022/03/28 07:34:30;;;;;;;21.92;8.57;;;;;;;10.29;72.36;101795.69;5029990;28;20025;-72
2022/03/28 07:37:05;;;;;;;25.15;8.85;;;;;;;10.08;71.78;101749.75;5028901;28;20033;-72
2022/03/28 07:39:33;;;;;;;23.52;8.63;;;;;;;10.36;74.18;101782.38;5029853;28;20469;-70
2022/03/28 07:41:58;;;;;;;24.90;9.27;;;;;;;10.35;72.17;101778.88;5029583;28;20044;-73
2022/03/28 07:44:24;;;;;;;19.13;9.00;;;;;;;10.48;71.85;101777.94;5030289;28;20408;-72
2022/03/28 07:46:50;;;;;;;17.08;9.10;;;;;;;10.60;70.45;101771.69;5029973;28;20063;-72
2022/03/28 07:49:18;;;;;;;21.23;8.40;;;;;;;10.68;70.19;101766.19;5030110;28;20032;-70
2022/03/28 07:51:45;;;;;;;20.35;8.80;;;;;;;10.79;69.81;101784.88;5029731;28;20764;-73
2022/03/28 07:54:10;;;;;;;24.98;9.38;;;;;;;10.87;70.15;101781.84;5029694;28;20451;-73
2022/03/28 07:56:36;;;;;;;27.08;10.13;;;;;;;10.99;69.66;101767.91;5028363;28;20116;-71
2022/03/28 07:59:02;;;;;;;24.80;9.68;;;;;;;11.21;69.22;101763.94;5024059;28;20159;-72
2022/03/28 08:01:27;;;;;;;21.35;8.40;;;;;;;11.27;69.07;101753.94;5030029;28;20120;-72
2022/03/28 08:03:54;;;;;;;29.75;12.05;;;;;;;11.41;69.05;101772.78;5029589;28;20091;-73
2022/03/28 08:06:20;;;;;;;25.70;8.77;;;;;;;11.54;67.40;101760.50;5027620;28;20038;-73
2022/03/28 08:08:46;;;;;;;26.83;9.18;;;;;;;11.72;66.82;101765.78;5007298;28;20077;-73
2022/03/28 08:11:11;;;;;;;22.90;9.20;;;;;;;11.78;65.64;101764.41;5021754;28;20562;-73
2022/03/28 08:13:57;;;;;;;25.77;8.68;;;;;;;11.92;68.11;101772.88;5018573;28;20049;-74
2022/03/28 08:16:22;;;;;;;25.95;9.15;;;;;;;11.89;66.00;101752.03;5049914;28;20127;-73
2022/03/28 08:18:48;;;;;;;24.45;8.95;;;;;;;11.90;66.02;101737.38;5050716;28;20044;-73
2022/03/28 08:21:13;;;;;;;27.45;9.93;;;;;;;11.97;67.42;101765.41;5050538;28;20102;-73
2022/03/28 08:23:39;;;;;;;22.58;8.95;;;;;;;12.08;65.34;101747.84;5050399;28;20040;-73
2022/03/28 08:26:04;;;;;;;25.65;9.30;;;;;;;12.21;65.97;101744.19;5016988;28;20075;-73
2022/03/28 08:28:31;;;;;;;25.58;7.88;;;;;;;12.34;64.28;101745.72;5050568;28;20141;-73
2022/03/28 08:30:56;;;;;;;21.95;8.50;;;;;;;12.42;65.18;101739.19;5050433;28;20040;-73
2022/03/28 08:33:22;;;;;;;22.55;8.70;;;;;;;12.49;63.76;101746.47;5049039;28;20037;-73
2022/03/28 08:35:47;;;;;;;20.25;7.60;;;;;;;12.57;62.70;101729.59;5050392;28;20028;-73
2022/03/28 08:38:13;;;;;;;21.90;8.43;;;;;;;12.50;63.77;101744.75;5050251;28;20428;-73
2022/03/28 08:40:42;;;;;;;31.92;8.40;;;;;;;12.34;62.77;101723.28;5047759;28;20094;-73
2022/03/28 08:43:08;;;;;;;22.30;8.25;;;;;;;12.36;62.96;101700.03;5049959;28;20072;-73
2022/03/28 08:45:37;;;;;;;35.65;9.48;;;;;;;12.65;62.74;101729.97;5049996;28;20032;-73
2022/03/28 08:48:09;;;;;;;29.60;9.27;;;;;;;12.83;64.15;101726.50;5049978;28;20045;-73
2022/03/28 08:50:35;;;;;;;20.85;7.97;;;;;;;12.97;61.50;101722.84;5043836;28;20100;-73
2022/03/28 08:53:01;;;;;;;21.85;8.40;;;;;;;13.14;61.95;101713.25;5026974;28;20045;-73
2022/03/28 08:55:27;;;;;;;19.58;8.63;;;;;;;13.27;61.06;101713.03;5025518;28;20482;-74
2022/03/28 08:57:52;;;;;;;25.13;9.77;;;;;;;13.27;59.14;101696.56;5032258;28;20040;-73
2022/03/28 09:00:18;;;;;;;17.73;8.55;;;;;;;13.50;59.97;101708.00;5032597;28;20038;-73
2022/03/28 09:02:46;;;;;;;29.92;8.98;;;;;;;13.38;58.16;101665.97;5028341;28;20493;-73
2022/03/28 09:05:15;;;;;;;20.52;9.05;;;;;;;13.41;58.35;101667.00;5027428;28;20513;-73
2022/03/28 09:07:42;;;;;;;22.10;8.60;;;;;;;13.68;56.99;101696.69;5031836;28;20048;-73
2022/03/28 09:10:13;;;;;;;18.13;8.70;;;;;;;13.81;57.04;101695.53;5031184;28;20398;-73
2022/03/28 09:13:10;;;;;;;16.60;8.88;;;;;;;13.98;55.87;101693.63;5032079;28;20034;-73
2022/03/28 09:15:46;;;;;;;16.92;9.15;;;;;;;14.13;56.59;101677.81;5032403;28;20079;-74
2022/03/28 09:18:24;;;;;;;19.40;9.25;;;;;;;14.30;59.07;101684.59;5021403;28;20113;-74
2022/03/28 09:21:00;;;;;;;16.25;8.57;;;;;;;14.46;58.14;101682.63;5012031;28;20453;-73
2022/03/28 09:23:30;;;;;;;16.42;8.95;;;;;;;14.49;56.74;101661.97;5011746;28;20029;-73
2022/03/28 09:25:57;;;;;;;19.42;9.32;;;;;;;14.64;55.91;101648.69;5012103;28;20022;-73
2022/03/28 09:28:38;;;;;;;17.05;9.38;;;;;;;14.92;56.17;101661.09;5026935;28;20021;-73
2022/03/28 09:31:39;;;;;;;22.23;8.75;;;;;;;14.78;55.00;101618.06;5012177;28;20065;-73
2022/03/28 09:34:16;;;;;;;15.73;9.00;;;;;;;14.74;54.70;101656.03;5030210;28;20036;-73
2022/03/28 09:36:50;;;;;;;22.08;9.55;;;;;;;14.92;54.27;101652.41;5031161;28;20026;-73
2022/03/28 09:39:25;;;;;;;17.05;8.27;;;;;;;14.65;56.09;101617.59;5031315;28;20084;-73
2022/03/28 09:42:10;;;;;;;17.80;7.60;;;;;;;14.48;56.43;101642.00;5031743;28;20032;-73
2022/03/28 09:44:35;;;;;;;13.00;8.70;;;;;;;14.72;54.90;101631.72;5031818;28;20034;-73
2022/03/28 09:47:08;;;;;;;17.70;8.43;;;;;;;14.85;55.35;101627.88;5031335;28;20044;-73
2022/03/28 09:49:34;;;;;;;19.05;8.50;;;;;;;14.92;54.81;101618.59;5013553;28;20030;-73
2022/03/28 09:52:28;;;;;;;14.77;9.05;;;;;;;15.17;53.88;101621.25;5018919;28;20131;-73
2022/03/28 09:54:58;;;;;;;18.15;8.40;;;;;;;15.24;53.73;101611.09;5008260;28;20100;-73
2022/03/28 09:57:26;;;;;;;19.33;8.68;;;;;;;15.28;53.14;101613.00;5007914;28;20061;-73
2022/03/28 10:00:07;;;;;;;13.98;8.40;;;;;;;15.52;52.85;101603.41;5007637;28;20508;-73
2022/03/28 10:02:35;;;;;;;12.88;7.85;;;;;;;15.51;52.96;101604.28;5004649;28;20049;-73
2022/03/28 10:05:01;;;;;;;15.75;8.55;;;;;;;15.61;51.72;101600.25;5013078;28;20143;-73
2022/03/28 10:07:27;;;;;;;18.13;9.73;;;;;;;15.77;51.99;101572.16;5006701;28;20136;-73
2022/03/28 10:09:53;;;;;;;12.60;9.13;;;;;;;15.86;52.17;101569.88;5006952;28;20030;-73
2022/03/28 10:12:20;;;;;;;18.13;9.35;;;;;;;16.21;50.50;101566.63;5008330;28;20509;-73
2022/03/28 10:14:49;;;;;;;16.15;9.07;;;;;;;16.28;50.67;101553.84;4975625;28;20514;-73
2022/03/28 10:17:14;;;;;;;18.13;9.23;;;;;;;16.46;49.17;101547.41;5007986;28;20129;-73
2022/03/28 10:19:40;;;;;;;13.52;8.93;;;;;;;16.57;49.77;101543.41;5007950;28;20150;-73
2022/03/28 10:22:12;;;;;;;15.07;9.40;;;;;;;16.80;48.99;101536.25;5008238;28;20045;-73
2022/03/28 10:24:41;;;;;;;16.67;9.82;;;;;;;16.95;49.78;101524.53;5008212;28;20062;-73
2022/03/28 10:27:10;;;;;;;20.48;9.60;;;;;;;17.16;48.62;101532.06;5008568;28;20037;-73
2022/03/28 10:29:36;;;;;;;15.00;8.75;;;;;;;17.28;47.84;101529.78;5008590;28;20549;-73
2022/03/28 10:32:07;;;;;;;15.18;9.13;;;;;;;17.21;47.62;101525.25;5017389;28;20029;-73
2022/03/28 10:34:44;;;;;;;14.73;9.30;;;;;;;17.42;48.43;101503.13;5029727;28;20037;-73
2022/03/28 10:37:35;;;;;;;20.40;10.25;;;;;;;17.52;48.05;101505.16;5029237;28;20029;-72
2022/03/28 10:40:27;;;;;;;18.50;9.48;;;;;;;17.55;47.71;101500.00;5029800;28;20504;-73
2022/03/28 10:43:11;;;;;;;17.30;8.70;;;;;;;17.68;47.36;101485.50;5030431;28;20029;-73
2022/03/28 10:45:49;;;;;;;16.17;9.55;;;;;;;17.73;47.06;101456.88;5030361;28;20041;-73
2022/03/28 10:51:19;;;;;;;15.80;9.85;;;;;;;17.90;46.02;101475.56;5174896;22;20140;-73
2022/03/28 10:53:51;;;;;;;15.82;9.68;;;;;;;18.00;46.40;101464.50;5031545;28;20038;-73
2022/03/28 10:56:24;;;;;;;17.88;9.52;;;;;;;18.08;45.61;101459.44;5031406;28;20081;-73
2022/03/28 10:58:55;;;;;;;16.10;9.80;;;;;;;18.20;45.17;101449.25;5031508;28;20033;-73
2022/03/28 11:01:27;;;;;;;14.00;9.18;;;;;;;18.32;44.08;101455.59;5028781;28;20041;-73
2022/03/28 11:04:02;;;;;;;16.33;10.00;;;;;;;18.46;43.97;101437.59;5031404;28;20040;-73
2022/03/28 11:06:43;;;;;;;24.80;9.85;;;;;;;18.55;46.65;101419.47;5031293;28;20033;-73
2022/03/28 11:09:08;;;;;;;15.73;9.02;;;;;;;18.67;44.45;101427.53;5031232;28;20025;-73
2022/03/28 11:11:34;;;;;;;16.98;9.32;;;;;;;18.86;44.10;101427.88;5031317;28;20036;-73
2022/03/28 11:13:59;;;;;;;18.75;8.95;;;;;;;18.75;45.04;101393.66;5031333;28;20018;-73
2022/03/28 11:16:41;;;;;;;15.65;9.18;;;;;;;19.11;42.91;101416.13;5031329;28;20037;-73
2022/03/28 11:19:22;;;;;;;14.50;9.13;;;;;;;19.20;42.11;101416.31;5031133;28;20388;-73
2022/03/28 11:21:56;;;;;;;14.15;8.63;;;;;;;19.27;43.75;101400.69;5031001;28;20026;-73
2022/03/28 11:24:56;;;;;;;14.75;9.27;;;;;;;19.31;43.18;101382.41;5031186;28;20053;-72